sensor_id;sensor_type;location;lat;lon;timestamp;temperature;humidity
20158;DHT22;10239;56.820;24.416;2023-07-20T00:02:09;14.40;99.90
20158;DHT22;10239;56.820;24.416;2023-07-20T00:04:36;14.20;99.90
20158;DHT22;10239;56.820;24.416;2023-07-20T00:07:05;14.20;99.90
20158;DHT22;10239;56.820;24.416;2023-07-20T00:09:33;14.10;99.90
20158;DHT22;10239;56.820;24.416;2023-07-20T00:12:00;14.10;99.90
20158;DHT22;10239;56.820;24.416;2023-07-20T00:14:28;14.00;99.90
20158;DHT22;10239;56.820;24.416;2023-07-20T00:16:56;13.80;99.90
20158;DHT22;10239;56.820;24.416;2023-07-20T00:19:25;13.80;99.90
20158;DHT22;10239;56.820;24.416;2023-07-20T00:21:54;13.70;99.90
20158;DHT22;10239;56.820;24.416;2023-07-20T00:24:22;13.60;99.90
20158;DHT22;10239;56.820;24.416;2023-07-20T00:26:50;13.70;99.90
20158;DHT22;10239;56.820;24.416;2023-07-20T00:29:18;13.20;99.90
20158;DHT22;10239;56.820;24.416;2023-07-20T00:31:46;13.40;99.90
20158;DHT22;10239;56.820;24.416;2023-07-20T00:34:16;13.50;99.90
20158;DHT22;10239;56.820;24.416;2023-07-20T00:36:44;13.40;99.90
20158;DHT22;10239;56.820;24.416;2023-07-20T00:39:11;13.40;99.90
20158;DHT22;10239;56.820;24.416;2023-07-20T00:41:39;13.40;99.90
20158;DHT22;10239;56.820;24.416;2023-07-20T00:44:06;13.40;99.90
20158;DHT22;10239;56.820;24.416;2023-07-20T00:46:34;13.40;99.90
20158;DHT22;10239;56.820;24.416;2023-07-20T00:49:02;13.30;99.90
20158;DHT22;10239;56.820;24.416;2023-07-20T00:51:30;13.40;99.90
20158;DHT22;10239;56.820;24.416;2023-07-20T00:53:58;13.50;99.90
20158;DHT22;10239;56.820;24.416;2023-07-20T00:56:26;13.50;99.90
20158;DHT22;10239;56.820;24.416;2023-07-20T00:58:54;13.50;99.90
20158;DHT22;10239;56.820;24.416;2023-07-20T01:01:22;13.60;99.90
20158;DHT22;10239;56.820;24.416;2023-07-20T01:03:50;13.70;99.90
20158;DHT22;10239;56.820;24.416;2023-07-20T01:06:53;13.70;99.90
20158;DHT22;10239;56.820;24.416;2023-07-20T01:09:59;13.60;99.90
20158;DHT22;10239;56.820;24.416;2023-07-20T01:12:42;13.70;99.90
20158;DHT22;10239;56.820;24.416;2023-07-20T01:15:10;13.80;99.90
20158;DHT22;10239;56.820;24.416;2023-07-20T01:17:38;13.80;99.90
20158;DHT22;10239;56.820;24.416;2023-07-20T01:20:10;13.70;99.90
20158;DHT22;10239;56.820;24.416;2023-07-20T01:23:22;13.80;99.90
20158;DHT22;10239;56.820;24.416;2023-07-20T01:29:14;13.80;99.90
20158;DHT22;10239;56.820;24.416;2023-07-20T01:31:51;13.70;99.90
20158;DHT22;10239;56.820;24.416;2023-07-20T01:34:22;13.60;99.90
20158;DHT22;10239;56.820;24.416;2023-07-20T01:36:52;13.60;99.90
20158;DHT22;10239;56.820;24.416;2023-07-20T01:39:21;13.60;99.90
20158;DHT22;10239;56.820;24.416;2023-07-20T01:41:49;13.60;99.90
20158;DHT22;10239;56.820;24.416;2023-07-20T01:44:17;13.50;99.90
20158;DHT22;10239;56.820;24.416;2023-07-20T01:46:45;13.40;99.90
20158;DHT22;10239;56.820;24.416;2023-07-20T01:49:12;13.40;99.90
20158;DHT22;10239;56.820;24.416;2023-07-20T01:51:40;13.40;99.90
20158;DHT22;10239;56.820;24.416;2023-07-20T01:54:09;13.40;99.90
20158;DHT22;10239;56.820;24.416;2023-07-20T01:56:37;13.40;99.90
20158;DHT22;10239;56.820;24.416;2023-07-20T01:59:05;13.30;99.90
20158;DHT22;10239;56.820;24.416;2023-07-20T02:01:33;13.40;99.90
20158;DHT22;10239;56.820;24.416;2023-07-20T02:04:01;13.20;99.90
20158;DHT22;10239;56.820;24.416;2023-07-20T02:06:28;13.20;99.90
20158;DHT22;10239;56.820;24.416;2023-07-20T02:08:56;13.20;99.90
20158;DHT22;10239;56.820;24.416;2023-07-20T02:11:24;13.10;99.90
20158;DHT22;10239;56.820;24.416;2023-07-20T02:13:51;13.10;99.90
20158;DHT22;10239;56.820;24.416;2023-07-20T02:16:19;13.10;99.90
20158;DHT22;10239;56.820;24.416;2023-07-20T02:18:47;13.20;99.90
20158;DHT22;10239;56.820;24.416;2023-07-20T02:21:15;13.10;99.90
20158;DHT22;10239;56.820;24.416;2023-07-20T02:23:43;13.10;99.90
20158;DHT22;10239;56.820;24.416;2023-07-20T02:26:11;13.20;99.90
20158;DHT22;10239;56.820;24.416;2023-07-20T02:28:38;13.10;99.90
20158;DHT22;10239;56.820;24.416;2023-07-20T02:31:06;13.10;99.90
20158;DHT22;10239;56.820;24.416;2023-07-20T02:33:34;13.00;99.90
20158;DHT22;10239;56.820;24.416;2023-07-20T02:36:02;13.10;99.90
20158;DHT22;10239;56.820;24.416;2023-07-20T02:38:29;13.20;99.90
20158;DHT22;10239;56.820;24.416;2023-07-20T02:40:57;13.10;99.90
20158;DHT22;10239;56.820;24.416;2023-07-20T02:43:25;13.10;99.90
20158;DHT22;10239;56.820;24.416;2023-07-20T02:45:53;13.10;99.90
20158;DHT22;10239;56.820;24.416;2023-07-20T02:48:20;13.10;99.90
20158;DHT22;10239;56.820;24.416;2023-07-20T02:50:48;13.30;99.90
20158;DHT22;10239;56.820;24.416;2023-07-20T02:53:16;13.30;99.90
20158;DHT22;10239;56.820;24.416;2023-07-20T02:55:43;13.30;99.90
20158;DHT22;10239;56.820;24.416;2023-07-20T02:58:11;13.40;99.90
20158;DHT22;10239;56.820;24.416;2023-07-20T03:00:38;13.50;99.90
20158;DHT22;10239;56.820;24.416;2023-07-20T03:03:06;13.60;99.90
20158;DHT22;10239;56.820;24.416;2023-07-20T03:05:40;13.80;99.90
20158;DHT22;10239;56.820;24.416;2023-07-20T03:08:08;14.00;99.90
20158;DHT22;10239;56.820;24.416;2023-07-20T03:10:39;14.20;99.90
20158;DHT22;10239;56.820;24.416;2023-07-20T03:13:08;14.20;99.90
20158;DHT22;10239;56.820;24.416;2023-07-20T03:15:35;14.30;99.90
20158;DHT22;10239;56.820;24.416;2023-07-20T03:18:03;14.40;99.90
20158;DHT22;10239;56.820;24.416;2023-07-20T03:20:31;14.40;99.90
20158;DHT22;10239;56.820;24.416;2023-07-20T03:22:59;14.40;99.90
20158;DHT22;10239;56.820;24.416;2023-07-20T03:25:27;14.30;99.90
20158;DHT22;10239;56.820;24.416;2023-07-20T03:27:55;14.40;99.90
20158;DHT22;10239;56.820;24.416;2023-07-20T03:30:22;14.30;99.90
20158;DHT22;10239;56.820;24.416;2023-07-20T03:32:50;14.40;99.90
20158;DHT22;10239;56.820;24.416;2023-07-20T03:35:18;14.40;99.90
20158;DHT22;10239;56.820;24.416;2023-07-20T03:37:46;14.40;99.90
20158;DHT22;10239;56.820;24.416;2023-07-20T03:40:13;14.60;99.90
20158;DHT22;10239;56.820;24.416;2023-07-20T03:42:41;14.70;99.90
20158;DHT22;10239;56.820;24.416;2023-07-20T03:45:13;14.80;99.90
20158;DHT22;10239;56.820;24.416;2023-07-20T03:47:40;15.00;99.90
20158;DHT22;10239;56.820;24.416;2023-07-20T03:50:10;15.20;99.90
20158;DHT22;10239;56.820;24.416;2023-07-20T03:52:38;15.30;99.90
20158;DHT22;10239;56.820;24.416;2023-07-20T03:55:06;15.50;99.90
20158;DHT22;10239;56.820;24.416;2023-07-20T03:57:33;15.60;99.90
20158;DHT22;10239;56.820;24.416;2023-07-20T04:00:01;15.70;99.90
20158;DHT22;10239;56.820;24.416;2023-07-20T04:02:38;15.80;99.90
20158;DHT22;10239;56.820;24.416;2023-07-20T04:05:06;15.90;99.90
20158;DHT22;10239;56.820;24.416;2023-07-20T04:07:34;15.90;99.90
20158;DHT22;10239;56.820;24.416;2023-07-20T04:10:01;16.10;99.90
20158;DHT22;10239;56.820;24.416;2023-07-20T04:12:28;16.10;99.90
20158;DHT22;10239;56.820;24.416;2023-07-20T04:14:56;16.30;99.90
20158;DHT22;10239;56.820;24.416;2023-07-20T04:17:24;16.30;99.90
20158;DHT22;10239;56.820;24.416;2023-07-20T04:19:51;16.60;99.90
20158;DHT22;10239;56.820;24.416;2023-07-20T04:22:18;16.70;99.90
20158;DHT22;10239;56.820;24.416;2023-07-20T04:24:46;16.90;99.90
20158;DHT22;10239;56.820;24.416;2023-07-20T04:27:13;16.90;99.90
20158;DHT22;10239;56.820;24.416;2023-07-20T04:29:41;17.00;99.90
20158;DHT22;10239;56.820;24.416;2023-07-20T04:32:08;17.10;99.90
20158;DHT22;10239;56.820;24.416;2023-07-20T04:34:36;17.00;99.90
20158;DHT22;10239;56.820;24.416;2023-07-20T04:37:04;17.10;99.90
20158;DHT22;10239;56.820;24.416;2023-07-20T04:39:32;17.30;99.90
20158;DHT22;10239;56.820;24.416;2023-07-20T04:42:05;17.50;99.90
20158;DHT22;10239;56.820;24.416;2023-07-20T04:44:33;17.60;99.90
20158;DHT22;10239;56.820;24.416;2023-07-20T04:47:02;17.70;99.90
20158;DHT22;10239;56.820;24.416;2023-07-20T04:49:34;17.70;99.90
20158;DHT22;10239;56.820;24.416;2023-07-20T04:52:02;17.70;99.90
20158;DHT22;10239;56.820;24.416;2023-07-20T04:54:31;17.60;99.90
20158;DHT22;10239;56.820;24.416;2023-07-20T04:56:58;17.80;99.90
20158;DHT22;10239;56.820;24.416;2023-07-20T04:59:26;17.80;99.90
20158;DHT22;10239;56.820;24.416;2023-07-20T05:01:54;18.30;99.90
20158;DHT22;10239;56.820;24.416;2023-07-20T05:04:22;18.80;99.90
20158;DHT22;10239;56.820;24.416;2023-07-20T05:06:50;19.10;99.90
20158;DHT22;10239;56.820;24.416;2023-07-20T05:09:18;19.40;99.90
20158;DHT22;10239;56.820;24.416;2023-07-20T05:11:45;19.60;99.90
20158;DHT22;10239;56.820;24.416;2023-07-20T05:14:15;20.40;99.90
20158;DHT22;10239;56.820;24.416;2023-07-20T05:16:43;21.50;99.90
20158;DHT22;10239;56.820;24.416;2023-07-20T05:19:11;22.20;99.90
20158;DHT22;10239;56.820;24.416;2023-07-20T05:21:39;22.90;99.90
20158;DHT22;10239;56.820;24.416;2023-07-20T05:24:07;23.30;99.90
20158;DHT22;10239;56.820;24.416;2023-07-20T05:26:34;24.10;99.90
20158;DHT22;10239;56.820;24.416;2023-07-20T05:29:02;24.20;99.90
20158;DHT22;10239;56.820;24.416;2023-07-20T05:31:30;23.90;99.90
20158;DHT22;10239;56.820;24.416;2023-07-20T05:33:59;23.20;99.90
20158;DHT22;10239;56.820;24.416;2023-07-20T05:36:27;23.00;99.90
20158;DHT22;10239;56.820;24.416;2023-07-20T05:38:55;22.70;99.90
20158;DHT22;10239;56.820;24.416;2023-07-20T05:41:22;22.50;99.90
20158;DHT22;10239;56.820;24.416;2023-07-20T05:47:12;21.50;99.90
20158;DHT22;10239;56.820;24.416;2023-07-20T05:49:39;21.50;99.90
20158;DHT22;10239;56.820;24.416;2023-07-20T05:52:07;21.60;99.90
20158;DHT22;10239;56.820;24.416;2023-07-20T05:54:35;21.80;99.90
20158;DHT22;10239;56.820;24.416;2023-07-20T05:57:03;21.80;99.90
20158;DHT22;10239;56.820;24.416;2023-07-20T05:59:31;21.50;99.90
20158;DHT22;10239;56.820;24.416;2023-07-20T06:01:59;21.90;99.90
20158;DHT22;10239;56.820;24.416;2023-07-20T06:04:27;23.10;99.90
20158;DHT22;10239;56.820;24.416;2023-07-20T06:06:54;23.90;99.90
20158;DHT22;10239;56.820;24.416;2023-07-20T06:09:22;24.30;99.90
20158;DHT22;10239;56.820;24.416;2023-07-20T06:11:50;24.90;99.90
20158;DHT22;10239;56.820;24.416;2023-07-20T06:14:18;25.80;99.90
20158;DHT22;10239;56.820;24.416;2023-07-20T06:16:46;26.50;99.90
20158;DHT22;10239;56.820;24.416;2023-07-20T06:19:13;26.70;99.90
20158;DHT22;10239;56.820;24.416;2023-07-20T06:21:41;27.10;99.90
20158;DHT22;10239;56.820;24.416;2023-07-20T06:24:09;28.10;99.90
20158;DHT22;10239;56.820;24.416;2023-07-20T06:26:37;29.00;99.90
20158;DHT22;10239;56.820;24.416;2023-07-20T06:29:06;28.40;99.90
20158;DHT22;10239;56.820;24.416;2023-07-20T06:31:35;27.80;99.90
20158;DHT22;10239;56.820;24.416;2023-07-20T06:34:04;27.30;99.90
20158;DHT22;10239;56.820;24.416;2023-07-20T06:36:31;27.70;99.90
20158;DHT22;10239;56.820;24.416;2023-07-20T06:38:59;27.80;99.90
20158;DHT22;10239;56.820;24.416;2023-07-20T06:41:30;26.80;99.90
20158;DHT22;10239;56.820;24.416;2023-07-20T06:44:00;26.70;99.90
20158;DHT22;10239;56.820;24.416;2023-07-20T06:46:28;27.70;99.90
20158;DHT22;10239;56.820;24.416;2023-07-20T06:48:56;27.50;99.90
20158;DHT22;10239;56.820;24.416;2023-07-20T06:51:27;28.30;99.90
20158;DHT22;10239;56.820;24.416;2023-07-20T06:53:55;27.40;99.90
20158;DHT22;10239;56.820;24.416;2023-07-20T06:56:23;26.80;99.90
20158;DHT22;10239;56.820;24.416;2023-07-20T06:58:52;26.60;99.90
20158;DHT22;10239;56.820;24.416;2023-07-20T07:01:20;26.60;99.90
20158;DHT22;10239;56.820;24.416;2023-07-20T07:03:49;27.60;99.90
20158;DHT22;10239;56.820;24.416;2023-07-20T07:06:21;28.90;99.90
20158;DHT22;10239;56.820;24.416;2023-07-20T07:08:51;30.10;99.90
20158;DHT22;10239;56.820;24.416;2023-07-20T07:11:21;31.40;99.90
20158;DHT22;10239;56.820;24.416;2023-07-20T07:13:53;31.50;99.90
20158;DHT22;10239;56.820;24.416;2023-07-20T07:16:23;30.80;99.90
20158;DHT22;10239;56.820;24.416;2023-07-20T07:18:52;30.00;99.90
20158;DHT22;10239;56.820;24.416;2023-07-20T07:21:20;30.10;99.90
20158;DHT22;10239;56.820;24.416;2023-07-20T07:23:48;31.20;99.90
20158;DHT22;10239;56.820;24.416;2023-07-20T07:26:17;32.00;99.90
20158;DHT22;10239;56.820;24.416;2023-07-20T07:28:44;32.50;98.40
20158;DHT22;10239;56.820;24.416;2023-07-20T07:31:12;33.20;96.50
20158;DHT22;10239;56.820;24.416;2023-07-20T07:33:40;33.90;97.00
20158;DHT22;10239;56.820;24.416;2023-07-20T07:36:08;34.70;94.70
20158;DHT22;10239;56.820;24.416;2023-07-20T07:38:35;35.30;93.80
20158;DHT22;10239;56.820;24.416;2023-07-20T07:41:22;35.70;94.30
20158;DHT22;10239;56.820;24.416;2023-07-20T07:43:50;35.90;85.20
20158;DHT22;10239;56.820;24.416;2023-07-20T07:46:18;36.10;88.10
20158;DHT22;10239;56.820;24.416;2023-07-20T07:48:45;36.30;84.90
20158;DHT22;10239;56.820;24.416;2023-07-20T07:51:13;36.60;86.50
20158;DHT22;10239;56.820;24.416;2023-07-20T07:53:41;36.70;83.00
20158;DHT22;10239;56.820;24.416;2023-07-20T07:56:10;36.80;85.00
20158;DHT22;10239;56.820;24.416;2023-07-20T07:58:38;36.80;75.40
20158;DHT22;10239;56.820;24.416;2023-07-20T08:01:06;36.80;75.80
20158;DHT22;10239;56.820;24.416;2023-07-20T08:03:33;36.70;77.90
20158;DHT22;10239;56.820;24.416;2023-07-20T08:06:03;35.00;74.80
20158;DHT22;10239;56.820;24.416;2023-07-20T08:08:32;35.20;75.40
20158;DHT22;10239;56.820;24.416;2023-07-20T08:11:00;35.50;75.00
20158;DHT22;10239;56.820;24.416;2023-07-20T08:13:33;35.70;74.20
20158;DHT22;10239;56.820;24.416;2023-07-20T08:16:01;34.70;72.70
20158;DHT22;10239;56.820;24.416;2023-07-20T08:18:32;35.00;73.30
20158;DHT22;10239;56.820;24.416;2023-07-20T08:20:59;35.20;75.30
20158;DHT22;10239;56.820;24.416;2023-07-20T08:23:27;35.90;70.70
20158;DHT22;10239;56.820;24.416;2023-07-20T08:25:55;36.20;68.80
20158;DHT22;10239;56.820;24.416;2023-07-20T08:28:22;35.90;70.50
20158;DHT22;10239;56.820;24.416;2023-07-20T08:30:50;35.40;76.50
20158;DHT22;10239;56.820;24.416;2023-07-20T08:33:18;36.30;70.70
20158;DHT22;10239;56.820;24.416;2023-07-20T08:35:50;36.30;67.60
20158;DHT22;10239;56.820;24.416;2023-07-20T08:38:18;36.30;71.00
20158;DHT22;10239;56.820;24.416;2023-07-20T08:40:46;37.40;72.10
20158;DHT22;10239;56.820;24.416;2023-07-20T08:43:15;37.30;71.70
20158;DHT22;10239;56.820;24.416;2023-07-20T08:45:46;36.60;64.60
20158;DHT22;10239;56.820;24.416;2023-07-20T08:48:16;35.40;64.40
20158;DHT22;10239;56.820;24.416;2023-07-20T08:50:46;33.60;67.90
20158;DHT22;10239;56.820;24.416;2023-07-20T08:53:14;32.50;72.70
20158;DHT22;10239;56.820;24.416;2023-07-20T08:55:44;31.70;70.00
20158;DHT22;10239;56.820;24.416;2023-07-20T08:58:15;30.60;75.00
20158;DHT22;10239;56.820;24.416;2023-07-20T09:00:44;29.20;81.80
20158;DHT22;10239;56.820;24.416;2023-07-20T09:03:18;28.00;83.30
20158;DHT22;10239;56.820;24.416;2023-07-20T09:05:47;27.10;85.40
20158;DHT22;10239;56.820;24.416;2023-07-20T09:08:14;26.00;86.20
20158;DHT22;10239;56.820;24.416;2023-07-20T09:10:42;25.30;89.60
20158;DHT22;10239;56.820;24.416;2023-07-20T09:13:09;24.90;91.10
20158;DHT22;10239;56.820;24.416;2023-07-20T09:15:52;24.80;90.40
20158;DHT22;10239;56.820;24.416;2023-07-20T09:18:29;25.40;92.10
20158;DHT22;10239;56.820;24.416;2023-07-20T09:21:04;26.90;92.80
20158;DHT22;10239;56.820;24.416;2023-07-20T09:23:37;28.90;93.40
20158;DHT22;10239;56.820;24.416;2023-07-20T09:26:11;30.50;88.70
20158;DHT22;10239;56.820;24.416;2023-07-20T09:28:52;31.40;86.80
20158;DHT22;10239;56.820;24.416;2023-07-20T09:31:22;32.50;82.90
20158;DHT22;10239;56.820;24.416;2023-07-20T09:33:52;33.10;77.30
20158;DHT22;10239;56.820;24.416;2023-07-20T09:36:26;32.30;75.50
20158;DHT22;10239;56.820;24.416;2023-07-20T09:38:56;30.90;80.00
20158;DHT22;10239;56.820;24.416;2023-07-20T09:41:28;29.60;84.20
20158;DHT22;10239;56.820;24.416;2023-07-20T09:44:00;28.80;89.20
20158;DHT22;10239;56.820;24.416;2023-07-20T09:46:49;28.30;89.10
20158;DHT22;10239;56.820;24.416;2023-07-20T09:49:20;27.50;91.40
20158;DHT22;10239;56.820;24.416;2023-07-20T09:51:53;27.00;93.70
20158;DHT22;10239;56.820;24.416;2023-07-20T09:54:21;26.70;94.30
20158;DHT22;10239;56.820;24.416;2023-07-20T09:56:51;26.80;93.00
20158;DHT22;10239;56.820;24.416;2023-07-20T09:59:19;27.10;94.30
20158;DHT22;10239;56.820;24.416;2023-07-20T10:01:47;26.90;89.80
20158;DHT22;10239;56.820;24.416;2023-07-20T10:04:18;26.20;91.20
20158;DHT22;10239;56.820;24.416;2023-07-20T10:06:49;25.90;93.30
20158;DHT22;10239;56.820;24.416;2023-07-20T10:09:20;25.80;94.10
20158;DHT22;10239;56.820;24.416;2023-07-20T10:11:51;25.70;93.70
20158;DHT22;10239;56.820;24.416;2023-07-20T10:14:58;25.40;92.80
20158;DHT22;10239;56.820;24.416;2023-07-20T10:17:28;25.10;92.20
20158;DHT22;10239;56.820;24.416;2023-07-20T10:19:57;24.70;91.80
20158;DHT22;10239;56.820;24.416;2023-07-20T10:22:32;24.30;93.20
20158;DHT22;10239;56.820;24.416;2023-07-20T10:25:08;23.80;95.30
20158;DHT22;10239;56.820;24.416;2023-07-20T10:27:36;23.60;98.70
20158;DHT22;10239;56.820;24.416;2023-07-20T10:30:06;23.20;99.90
20158;DHT22;10239;56.820;24.416;2023-07-20T10:32:33;22.90;99.90
20158;DHT22;10239;56.820;24.416;2023-07-20T10:35:01;22.40;99.90
20158;DHT22;10239;56.820;24.416;2023-07-20T10:37:59;22.70;99.90
20158;DHT22;10239;56.820;24.416;2023-07-20T10:40:41;22.80;99.90
20158;DHT22;10239;56.820;24.416;2023-07-20T10:43:10;23.10;99.90
20158;DHT22;10239;56.820;24.416;2023-07-20T10:48:30;23.40;99.90
20158;DHT22;10239;56.820;24.416;2023-07-20T10:51:19;23.40;99.90
20158;DHT22;10239;56.820;24.416;2023-07-20T10:53:50;23.50;99.90
20158;DHT22;10239;56.820;24.416;2023-07-20T10:56:23;23.50;99.90
20158;DHT22;10239;56.820;24.416;2023-07-20T10:58:58;23.60;99.90
20158;DHT22;10239;56.820;24.416;2023-07-20T11:01:35;23.60;99.90
20158;DHT22;10239;56.820;24.416;2023-07-20T11:04:08;23.90;99.90
20158;DHT22;10239;56.820;24.416;2023-07-20T11:06:36;24.10;99.90
20158;DHT22;10239;56.820;24.416;2023-07-20T11:09:13;24.30;99.90
20158;DHT22;10239;56.820;24.416;2023-07-20T11:11:48;24.50;99.90
20158;DHT22;10239;56.820;24.416;2023-07-20T11:14:23;25.10;99.90
20158;DHT22;10239;56.820;24.416;2023-07-20T11:16:52;25.70;99.90
20158;DHT22;10239;56.820;24.416;2023-07-20T11:19:22;25.70;99.90
20158;DHT22;10239;56.820;24.416;2023-07-20T11:21:57;25.50;99.90
20158;DHT22;10239;56.820;24.416;2023-07-20T11:24:31;25.40;99.90
20158;DHT22;10239;56.820;24.416;2023-07-20T11:26:59;25.40;99.90
20158;DHT22;10239;56.820;24.416;2023-07-20T11:29:30;25.80;99.90
20158;DHT22;10239;56.820;24.416;2023-07-20T11:32:01;26.20;99.90
20158;DHT22;10239;56.820;24.416;2023-07-20T11:34:33;26.30;99.90
20158;DHT22;10239;56.820;24.416;2023-07-20T11:37:01;26.60;99.90
20158;DHT22;10239;56.820;24.416;2023-07-20T11:39:32;26.90;99.50
20158;DHT22;10239;56.820;24.416;2023-07-20T11:42:00;26.80;99.90
20158;DHT22;10239;56.820;24.416;2023-07-20T11:44:29;26.70;99.90
20158;DHT22;10239;56.820;24.416;2023-07-20T11:49:41;26.30;99.90
20158;DHT22;10239;56.820;24.416;2023-07-20T11:52:16;26.40;99.90
20158;DHT22;10239;56.820;24.416;2023-07-20T11:54:45;26.70;96.20
20158;DHT22;10239;56.820;24.416;2023-07-20T11:57:22;26.50;97.20
20158;DHT22;10239;56.820;24.416;2023-07-20T11:59:57;26.50;99.20
20158;DHT22;10239;56.820;24.416;2023-07-20T12:02:29;26.80;99.90
20158;DHT22;10239;56.820;24.416;2023-07-20T12:04:58;27.20;99.90
20158;DHT22;10239;56.820;24.416;2023-07-20T12:07:28;27.20;97.70
20158;DHT22;10239;56.820;24.416;2023-07-20T12:10:10;27.00;97.60
20158;DHT22;10239;56.820;24.416;2023-07-20T12:12:43;26.80;98.50
20158;DHT22;10239;56.820;24.416;2023-07-20T12:17:45;26.60;96.80
20158;DHT22;10239;56.820;24.416;2023-07-20T12:20:13;26.10;95.80
20158;DHT22;10239;56.820;24.416;2023-07-20T12:22:52;25.80;97.10
20158;DHT22;10239;56.820;24.416;2023-07-20T12:25:21;25.50;98.50
20158;DHT22;10239;56.820;24.416;2023-07-20T12:27:49;24.90;97.80
20158;DHT22;10239;56.820;24.416;2023-07-20T12:30:16;24.50;98.80
20158;DHT22;10239;56.820;24.416;2023-07-20T12:32:44;24.20;99.40
20158;DHT22;10239;56.820;24.416;2023-07-20T12:35:11;23.40;99.90
20158;DHT22;10239;56.820;24.416;2023-07-20T12:37:40;22.70;99.90
20158;DHT22;10239;56.820;24.416;2023-07-20T12:40:08;22.20;99.90
20158;DHT22;10239;56.820;24.416;2023-07-20T12:42:38;21.90;99.90
20158;DHT22;10239;56.820;24.416;2023-07-20T12:45:06;22.00;99.90
20158;DHT22;10239;56.820;24.416;2023-07-20T12:47:33;22.20;99.90
20158;DHT22;10239;56.820;24.416;2023-07-20T12:50:01;22.80;99.90
20158;DHT22;10239;56.820;24.416;2023-07-20T12:52:37;23.50;99.90
20158;DHT22;10239;56.820;24.416;2023-07-20T12:55:06;24.20;99.90
20158;DHT22;10239;56.820;24.416;2023-07-20T12:57:36;24.60;99.90
20158;DHT22;10239;56.820;24.416;2023-07-20T13:00:05;24.80;99.90
20158;DHT22;10239;56.820;24.416;2023-07-20T13:02:35;25.10;99.90
20158;DHT22;10239;56.820;24.416;2023-07-20T13:05:05;25.20;99.90
20158;DHT22;10239;56.820;24.416;2023-07-20T13:07:35;24.90;99.90
20158;DHT22;10239;56.820;24.416;2023-07-20T13:10:09;24.90;99.90
20158;DHT22;10239;56.820;24.416;2023-07-20T13:12:38;24.70;99.80
20158;DHT22;10239;56.820;24.416;2023-07-20T13:15:08;24.70;99.40
20158;DHT22;10239;56.820;24.416;2023-07-20T13:17:37;24.70;98.90
20158;DHT22;10239;56.820;24.416;2023-07-20T13:20:08;24.70;99.90
20158;DHT22;10239;56.820;24.416;2023-07-20T13:22:38;24.50;99.40
20158;DHT22;10239;56.820;24.416;2023-07-20T13:25:07;24.30;99.80
20158;DHT22;10239;56.820;24.416;2023-07-20T13:27:35;24.30;99.60
20158;DHT22;10239;56.820;24.416;2023-07-20T13:30:05;24.20;99.90
20158;DHT22;10239;56.820;24.416;2023-07-20T13:32:38;23.70;99.90
20158;DHT22;10239;56.820;24.416;2023-07-20T13:35:11;24.00;99.90
20158;DHT22;10239;56.820;24.416;2023-07-20T13:37:39;23.90;99.60
20158;DHT22;10239;56.820;24.416;2023-07-20T13:40:07;23.80;99.90
20158;DHT22;10239;56.820;24.416;2023-07-20T13:42:39;24.00;99.90
20158;DHT22;10239;56.820;24.416;2023-07-20T13:45:12;23.90;99.90
20158;DHT22;10239;56.820;24.416;2023-07-20T13:47:41;24.00;99.30
20158;DHT22;10239;56.820;24.416;2023-07-20T13:50:13;23.70;99.80
20158;DHT22;10239;56.820;24.416;2023-07-20T13:52:52;23.60;99.40
20158;DHT22;10239;56.820;24.416;2023-07-20T13:55:40;23.70;99.10
20158;DHT22;10239;56.820;24.416;2023-07-20T13:58:10;23.60;98.90
20158;DHT22;10239;56.820;24.416;2023-07-20T14:00:40;23.40;99.90
20158;DHT22;10239;56.820;24.416;2023-07-20T14:03:08;23.50;98.70
20158;DHT22;10239;56.820;24.416;2023-07-20T14:05:39;23.70;99.90
20158;DHT22;10239;56.820;24.416;2023-07-20T14:08:10;23.90;99.90
20158;DHT22;10239;56.820;24.416;2023-07-20T14:10:38;24.10;99.90
20158;DHT22;10239;56.820;24.416;2023-07-20T14:13:08;24.50;98.20
20158;DHT22;10239;56.820;24.416;2023-07-20T14:15:36;24.60;99.80
20158;DHT22;10239;56.820;24.416;2023-07-20T14:18:04;24.50;99.90
20158;DHT22;10239;56.820;24.416;2023-07-20T14:20:32;24.70;99.90
20158;DHT22;10239;56.820;24.416;2023-07-20T14:22:59;24.80;99.70
20158;DHT22;10239;56.820;24.416;2023-07-20T14:25:27;24.60;99.90
20158;DHT22;10239;56.820;24.416;2023-07-20T14:27:56;24.50;99.60
20158;DHT22;10239;56.820;24.416;2023-07-20T14:30:23;24.50;99.70
20158;DHT22;10239;56.820;24.416;2023-07-20T14:32:51;24.40;98.70
20158;DHT22;10239;56.820;24.416;2023-07-20T14:35:18;24.30;99.20
20158;DHT22;10239;56.820;24.416;2023-07-20T14:37:47;24.70;97.60
20158;DHT22;10239;56.820;24.416;2023-07-20T14:40:14;24.90;97.80
20158;DHT22;10239;56.820;24.416;2023-07-20T14:42:42;24.80;99.20
20158;DHT22;10239;56.820;24.416;2023-07-20T14:45:09;25.00;98.80
20158;DHT22;10239;56.820;24.416;2023-07-20T14:47:36;25.00;98.60
20158;DHT22;10239;56.820;24.416;2023-07-20T14:50:05;24.80;99.90
20158;DHT22;10239;56.820;24.416;2023-07-20T14:52:33;24.70;99.90
20158;DHT22;10239;56.820;24.416;2023-07-20T14:55:00;24.90;99.40
20158;DHT22;10239;56.820;24.416;2023-07-20T14:57:27;25.10;98.60
20158;DHT22;10239;56.820;24.416;2023-07-20T14:59:55;25.20;98.00
20158;DHT22;10239;56.820;24.416;2023-07-20T15:02:22;25.00;98.20
20158;DHT22;10239;56.820;24.416;2023-07-20T15:04:50;25.00;97.20
20158;DHT22;10239;56.820;24.416;2023-07-20T15:07:20;24.90;97.40
20158;DHT22;10239;56.820;24.416;2023-07-20T15:09:49;24.80;97.40
20158;DHT22;10239;56.820;24.416;2023-07-20T15:12:16;24.50;96.50
20158;DHT22;10239;56.820;24.416;2023-07-20T15:14:44;24.30;97.20
20158;DHT22;10239;56.820;24.416;2023-07-20T15:17:16;24.10;97.40
20158;DHT22;10239;56.820;24.416;2023-07-20T15:19:44;24.30;97.00
20158;DHT22;10239;56.820;24.416;2023-07-20T15:22:11;24.30;97.30
20158;DHT22;10239;56.820;24.416;2023-07-20T15:24:39;24.40;95.80
20158;DHT22;10239;56.820;24.416;2023-07-20T15:27:07;24.30;97.00
20158;DHT22;10239;56.820;24.416;2023-07-20T15:29:35;24.30;97.10
20158;DHT22;10239;56.820;24.416;2023-07-20T15:32:03;24.30;97.80
20158;DHT22;10239;56.820;24.416;2023-07-20T15:34:31;24.10;96.50
20158;DHT22;10239;56.820;24.416;2023-07-20T15:36:58;24.10;97.70
20158;DHT22;10239;56.820;24.416;2023-07-20T15:39:26;23.90;97.30
20158;DHT22;10239;56.820;24.416;2023-07-20T15:41:55;23.80;99.10
20158;DHT22;10239;56.820;24.416;2023-07-20T15:44:22;23.60;99.40
20158;DHT22;10239;56.820;24.416;2023-07-20T15:46:50;23.70;99.90